Coral Princess — ZCDF4 — position and weather

sailwx.info

Track history (hours):
 
Tides and Currents Weather Stations Pressure Air Temp Water Temp Dewpoint Dewpoint Depression Visibility Wind Speed Wind Dir Waves Ship Positions

Coral Princess

Operator: Princess Cruises

Last reported at 2017-Aug-20 20:54 UTC. Time now 2017-Aug-22 22:29 UTC.
Position N 52°03' W 129°21'.

Type: Passenger vessel. MMSI: 310376000.

Date/timePositionNaut miles runAvg speedWind from/ knotsBaromVisibWave heightAir tempDewpointWater temp
2017-Aug-20 20:54N 52°03' W 129°21'513.2
2017-Aug-20 20:30N 51°59' W 129°16'713.4
2017-Aug-20 20:01N 51°54' W 129°10'713.5
2017-Aug-20 19:31N 51°48' W 129°03'713.4
2017-Aug-20 19:01N 51°43' W 128°57'713.4
2017-Aug-20 18:31N 51°37' W 128°51'713.4
2017-Aug-20 18:00N 51°32' W 128°44'713.2
2017-Aug-20 17:31N 51°26' W 128°38'713.3
2017-Aug-20 17:00N 51°21' W 128°32'713.4
2017-Aug-20 16:30N 51°17' W 128°24'713.3
2017-Aug-20 16:00N 51°13' W 128°15'713.4
2017-Aug-20 15:30N 51°08' W 128°07'713.4
2017-Aug-20 15:01N 51°04' W 127°59'713.4
2017-Aug-20 14:30N 51°00' W 127°50'612.5
2017-Aug-20 14:00N 50°56' W 127°43'713.6
2017-Aug-20 13:30N 50°52' W 127°34'713.4
2017-Aug-20 13:00N 50°49' W 127°24'612.8
2017-Aug-20 12:30N 50°47' W 127°15'713.0
2017-Aug-20 12:00N 50°44' W 127°05'612.7
2017-Aug-20 11:30N 50°42' W 126°56'612.4
2017-Aug-20 10:59N 50°38' W 126°48'4113.3
2017-Aug-20 07:53N 50°23' W 125°48'914.1
2017-Aug-20 07:15N 50°22' W 125°34'512.6
2017-Aug-20 06:53N 50°20' W 125°27'411.7
2017-Aug-20 06:30N 50°16' W 125°24'713.6
2017-Aug-20 06:00N 50°10' W 125°21'612.6
2017-Aug-20 05:30N 50°05' W 125°16'815.4
2017-Aug-20 05:01N 49°58' W 125°10'1019.8
2017-Aug-20 04:31N 49°51' W 124°59'1020.1
2017-Aug-20 04:01N 49°44' W 124°49'1020.4
2017-Aug-20 03:31N 49°36' W 124°38'1020.5
2017-Aug-20 03:01N 49°29' W 124°28'1020.0
2017-Aug-20 02:31N 49°24' W 124°14'1020.4
2017-Aug-20 02:01N 49°23' W 123°58'1020.2
2017-Aug-20 01:31N 49°22' W 123°43'1019.9
2017-Aug-20 01:01N 49°19' W 123°28'917.4
2017-Aug-20 00:31N 49°19' W 123°15'611.4
2017-Aug-20 00:00N 49°18' W 123°06'1 1.0
2017-Aug-19 23:28N 49°17' W 123°06'0 0.0
2017-Aug-19 22:58N 49°17' W 123°06'0 0.0
2017-Aug-19 22:25N 49°17' W 123°06'0 0.0
2017-Aug-19 21:58N 49°17' W 123°06'0 0.0
2017-Aug-19 21:28N 49°17' W 123°06'0 0.0
2017-Aug-19 20:58N 49°17' W 123°06'0 0.0
2017-Aug-19 20:28N 49°17' W 123°06'0 0.0
2017-Aug-19 19:58N 49°17' W 123°06'0 0.0
2017-Aug-19 19:28N 49°17' W 123°06'0 0.0
2017-Aug-19 18:58N 49°17' W 123°06'0 0.0
2017-Aug-19 18:28N 49°17' W 123°06'0 0.0
2017-Aug-19 17:58N 49°17' W 123°06'0 0.0
2017-Aug-19 17:28N 49°17' W 123°06'0 0.0
2017-Aug-19 16:58N 49°17' W 123°06'0 0.0
2017-Aug-19 16:28N 49°17' W 123°06'0 0.0
2017-Aug-19 15:58N 49°17' W 123°06'0 0.0
2017-Aug-19 15:28N 49°17' W 123°06'0 0.0
2017-Aug-19 14:58N 49°17' W 123°06'0 0.0
2017-Aug-19 14:00N 49°17' W 123°06'1 1.0
2017-Aug-19 13:31N 49°18' W 123°06'4 7.7
2017-Aug-19 13:00N 49°19' W 123°12'611.0
2017-Aug-19 12:30N 49°18' W 123°20'611.5
2017-Aug-19 12:00N 49°19' W 123°29'611.8
2017-Aug-19 11:30N 49°19' W 123°38'611.6
2017-Aug-19 11:00N 49°20' W 123°47'611.7
2017-Aug-19 10:30N 49°21' W 123°56'611.4
2017-Aug-19 10:00N 49°23' W 124°04'611.6
2017-Aug-19 09:30N 49°24' W 124°13'611.5
2017-Aug-19 09:00N 49°27' W 124°21'611.7
2017-Aug-19 08:30N 49°30' W 124°28'611.9
2017-Aug-19 08:00N 49°34' W 124°35'612.2
2017-Aug-19 07:31N 49°39' W 124°41'714.6
2017-Aug-19 07:01N 49°44' W 124°49'815.1
2017-Aug-19 06:31N 49°49' W 124°57'714.7
2017-Aug-19 06:01N 49°55' W 125°05'713.8
2017-Aug-19 05:30N 49°60' W 125°12'611.7
2017-Aug-19 05:00N 50°05' W 125°17'611.6
2017-Aug-19 04:31N 50°10' W 125°22'713.6
2017-Aug-19 03:59N 50°17' W 125°24'612.4
2017-Aug-19 03:30N 50°21' W 125°31'1014.5
2017-Aug-19 02:50N 50°22' W 125°46'4514.9
2017-Aug-18 23:49N 50°40' W 126°51'617.9
2017-Aug-18 23:30N 50°42' W 126°58'2417.6
2017-Aug-18 22:07N 50°52' W 127°34'217.4
2017-Aug-18 22:00N 50°53' W 127°36'917.2
2017-Aug-18 21:30N 50°59' W 127°47'612.8
2017-Aug-18 21:00N 51°03' W 127°55'713.7
2017-Aug-18 20:30N 51°07' W 128°04'713.4
2017-Aug-18 20:00N 51°11' W 128°12'713.4
2017-Aug-18 19:30N 51°16' W 128°20'713.5
2017-Aug-18 19:00N 51°20' W 128°28'612.8
2017-Aug-18 18:30N 51°25' W 128°34'612.5
2017-Aug-18 18:00N 51°30' W 128°40'612.9
2017-Aug-18 17:30N 51°35' W 128°47'713.3
2017-Aug-18 17:01N 51°41' W 128°53'713.5
2017-Aug-18 16:30N 51°46' W 128°59'714.8
2017-Aug-18 16:00N 51°52' W 129°06'714.8
2017-Aug-18 15:30N 51°58' W 129°13'714.9
2017-Aug-18 15:00N 52°04' W 129°21'714.9
2017-Aug-18 14:30N 52°10' W 129°28'352 9.9
2017-Aug-17 03:00N 57°30' W 133°42'112 2.9 160 / 321011.2 5.4 13.012.110.0
2017-Aug-15 12:00N 59°12' W 135°12'62 9.5 130 / 61011.210.8 11.4 8.6 8.0
2017-Aug-15 05:25N 58°10' W 135°19'612.1
2017-Aug-15 04:58N 58°13' W 135°28'612.0
2017-Aug-15 04:30N 58°15' W 135°37'612.3
2017-Aug-15 03:59N 58°18' W 135°47'511.4
2017-Aug-15 03:31N 58°20' W 135°57'612.8
2017-Aug-15 03:00N 58°27' W 135°60'611.2
2017-Aug-15 02:30N 58°32' W 136°04'815.2
2017-Aug-15 02:00N 58°39' W 136°08'816.0
2017-Aug-15 01:30N 58°45' W 136°19'815.8
2017-Aug-15 00:59N 58°50' W 136°32'1 0.1
2017-Aug-14 19:15N 58°50' W 136°30'513.5
2017-Aug-14 18:54N 58°47' W 136°23'717.3
2017-Aug-14 18:30N 58°42' W 136°14'917.7
2017-Aug-14 18:00N 58°35' W 136°04'816.3
2017-Aug-14 17:30N 58°27' W 136°01'4 8.6
2017-Aug-14 17:00N 58°23' W 135°60'510.9
2017-Aug-14 16:30N 58°20' W 136°08'8 5.2
2017-Aug-14 15:00N 58°12' W 136°12'5213.0 250 / 101008.6 5.4 11.5 8.5 8.0
2017-Aug-14 11:00N 58°24' W 137°48'187 9.4 270 / 41010.1 5.4 12.8 8.814.0
2017-Aug-13 15:00N 59°36' W 143°24'40 0.8 190 / 22996.8 5.4 14.511.714.0
2017-Aug-11 15:00N 59°42' W 144°42'27718.2 170 / 221006.4 5.4 15.014.115.0
2017-Aug-10 23:48N 58°20' W 136°09'517.1
2017-Aug-10 23:30N 58°22' W 136°00'510.0
2017-Aug-10 23:00N 58°27' W 136°01'713.0
2017-Aug-10 22:30N 58°33' W 136°04'917.8
2017-Aug-10 22:00N 58°41' W 136°12'1018.4
2017-Aug-10 21:29N 58°48' W 136°25'  
Track history (hours):
 
Tides and Currents Weather Stations Pressure Air Temp Water Temp Dewpoint Dewpoint Depression Visibility Wind Speed Wind Dir Waves Ship Positions

Coral Princess

Operator: Princess Cruises

Last reported at 2017-Aug-20 20:54 UTC. Time now 2017-Aug-22 22:29 UTC.
Position N 52°03' W 129°21'.

Type: Passenger vessel. MMSI: 310376000.

Date/timePositionNaut miles runAvg speedWind from/ knotsBaromVisibWave heightAir tempDewpointWater temp
2017-Aug-20 20:54N 52°03' W 129°21'513.2
2017-Aug-20 20:30N 51°59' W 129°16'713.4
2017-Aug-20 20:01N 51°54' W 129°10'713.5
2017-Aug-20 19:31N 51°48' W 129°03'713.4
2017-Aug-20 19:01N 51°43' W 128°57'713.4
2017-Aug-20 18:31N 51°37' W 128°51'713.4
2017-Aug-20 18:00N 51°32' W 128°44'713.2
2017-Aug-20 17:31N 51°26' W 128°38'713.3
2017-Aug-20 17:00N 51°21' W 128°32'713.4
2017-Aug-20 16:30N 51°17' W 128°24'713.3
2017-Aug-20 16:00N 51°13' W 128°15'713.4
2017-Aug-20 15:30N 51°08' W 128°07'713.4
2017-Aug-20 15:01N 51°04' W 127°59'713.4
2017-Aug-20 14:30N 51°00' W 127°50'612.5
2017-Aug-20 14:00N 50°56' W 127°43'713.6
2017-Aug-20 13:30N 50°52' W 127°34'713.4
2017-Aug-20 13:00N 50°49' W 127°24'612.8
2017-Aug-20 12:30N 50°47' W 127°15'713.0
2017-Aug-20 12:00N 50°44' W 127°05'612.7
2017-Aug-20 11:30N 50°42' W 126°56'612.4
2017-Aug-20 10:59N 50°38' W 126°48'4113.3
2017-Aug-20 07:53N 50°23' W 125°48'914.1
2017-Aug-20 07:15N 50°22' W 125°34'512.6
2017-Aug-20 06:53N 50°20' W 125°27'411.7
2017-Aug-20 06:30N 50°16' W 125°24'713.6
2017-Aug-20 06:00N 50°10' W 125°21'612.6
2017-Aug-20 05:30N 50°05' W 125°16'815.4
2017-Aug-20 05:01N 49°58' W 125°10'1019.8
2017-Aug-20 04:31N 49°51' W 124°59'1020.1
2017-Aug-20 04:01N 49°44' W 124°49'1020.4
2017-Aug-20 03:31N 49°36' W 124°38'1020.5
2017-Aug-20 03:01N 49°29' W 124°28'1020.0
2017-Aug-20 02:31N 49°24' W 124°14'1020.4
2017-Aug-20 02:01N 49°23' W 123°58'1020.2
2017-Aug-20 01:31N 49°22' W 123°43'1019.9
2017-Aug-20 01:01N 49°19' W 123°28'917.4
2017-Aug-20 00:31N 49°19' W 123°15'611.4
2017-Aug-20 00:00N 49°18' W 123°06'1 1.0
2017-Aug-19 23:28N 49°17' W 123°06'0 0.0
2017-Aug-19 22:58N 49°17' W 123°06'0 0.0
2017-Aug-19 22:25N 49°17' W 123°06'0 0.0
2017-Aug-19 21:58N 49°17' W 123°06'0 0.0
2017-Aug-19 21:28N 49°17' W 123°06'0 0.0
2017-Aug-19 20:58N 49°17' W 123°06'0 0.0
2017-Aug-19 20:28N 49°17' W 123°06'0 0.0
2017-Aug-19 19:58N 49°17' W 123°06'0 0.0
2017-Aug-19 19:28N 49°17' W 123°06'0 0.0
2017-Aug-19 18:58N 49°17' W 123°06'0 0.0
2017-Aug-19 18:28N 49°17' W 123°06'0 0.0
2017-Aug-19 17:58N 49°17' W 123°06'0 0.0
2017-Aug-19 17:28N 49°17' W 123°06'0 0.0
2017-Aug-19 16:58N 49°17' W 123°06'0 0.0
2017-Aug-19 16:28N 49°17' W 123°06'0 0.0
2017-Aug-19 15:58N 49°17' W 123°06'0 0.0
2017-Aug-19 15:28N 49°17' W 123°06'0 0.0
2017-Aug-19 14:58N 49°17' W 123°06'0 0.0
2017-Aug-19 14:00N 49°17' W 123°06'1 1.0
2017-Aug-19 13:31N 49°18' W 123°06'4 7.7
2017-Aug-19 13:00N 49°19' W 123°12'611.0
2017-Aug-19 12:30N 49°18' W 123°20'611.5
2017-Aug-19 12:00N 49°19' W 123°29'611.8
2017-Aug-19 11:30N 49°19' W 123°38'611.6
2017-Aug-19 11:00N 49°20' W 123°47'611.7
2017-Aug-19 10:30N 49°21' W 123°56'611.4
2017-Aug-19 10:00N 49°23' W 124°04'611.6
2017-Aug-19 09:30N 49°24' W 124°13'611.5
2017-Aug-19 09:00N 49°27' W 124°21'611.7
2017-Aug-19 08:30N 49°30' W 124°28'611.9
2017-Aug-19 08:00N 49°34' W 124°35'612.2
2017-Aug-19 07:31N 49°39' W 124°41'714.6
2017-Aug-19 07:01N 49°44' W 124°49'815.1
2017-Aug-19 06:31N 49°49' W 124°57'714.7
2017-Aug-19 06:01N 49°55' W 125°05'713.8
2017-Aug-19 05:30N 49°60' W 125°12'611.7
2017-Aug-19 05:00N 50°05' W 125°17'611.6
2017-Aug-19 04:31N 50°10' W 125°22'713.6
2017-Aug-19 03:59N 50°17' W 125°24'612.4
2017-Aug-19 03:30N 50°21' W 125°31'1014.5
2017-Aug-19 02:50N 50°22' W 125°46'4514.9
2017-Aug-18 23:49N 50°40' W 126°51'617.9
2017-Aug-18 23:30N 50°42' W 126°58'2417.6
2017-Aug-18 22:07N 50°52' W 127°34'217.4
2017-Aug-18 22:00N 50°53' W 127°36'917.2
2017-Aug-18 21:30N 50°59' W 127°47'612.8
2017-Aug-18 21:00N 51°03' W 127°55'713.7
2017-Aug-18 20:30N 51°07' W 128°04'713.4
2017-Aug-18 20:00N 51°11' W 128°12'713.4
2017-Aug-18 19:30N 51°16' W 128°20'713.5
2017-Aug-18 19:00N 51°20' W 128°28'612.8
2017-Aug-18 18:30N 51°25' W 128°34'612.5
2017-Aug-18 18:00N 51°30' W 128°40'612.9
2017-Aug-18 17:30N 51°35' W 128°47'713.3
2017-Aug-18 17:01N 51°41' W 128°53'713.5
2017-Aug-18 16:30N 51°46' W 128°59'714.8
2017-Aug-18 16:00N 51°52' W 129°06'714.8
2017-Aug-18 15:30N 51°58' W 129°13'714.9
2017-Aug-18 15:00N 52°04' W 129°21'714.9
2017-Aug-18 14:30N 52°10' W 129°28'352 9.9
2017-Aug-17 03:00N 57°30' W 133°42'112 2.9 160 / 321011.2 5.4 13.012.110.0
2017-Aug-15 12:00N 59°12' W 135°12'62 9.5 130 / 61011.210.8 11.4 8.6 8.0
2017-Aug-15 05:25N 58°10' W 135°19'612.1
2017-Aug-15 04:58N 58°13' W 135°28'612.0
2017-Aug-15 04:30N 58°15' W 135°37'612.3
2017-Aug-15 03:59N 58°18' W 135°47'511.4
2017-Aug-15 03:31N 58°20' W 135°57'612.8
2017-Aug-15 03:00N 58°27' W 135°60'611.2
2017-Aug-15 02:30N 58°32' W 136°04'815.2
2017-Aug-15 02:00N 58°39' W 136°08'816.0
2017-Aug-15 01:30N 58°45' W 136°19'815.8
2017-Aug-15 00:59N 58°50' W 136°32'1 0.1
2017-Aug-14 19:15N 58°50' W 136°30'513.5
2017-Aug-14 18:54N 58°47' W 136°23'717.3
2017-Aug-14 18:30N 58°42' W 136°14'917.7
2017-Aug-14 18:00N 58°35' W 136°04'816.3
2017-Aug-14 17:30N 58°27' W 136°01'4 8.6
2017-Aug-14 17:00N 58°23' W 135°60'510.9
2017-Aug-14 16:30N 58°20' W 136°08'8 5.2
2017-Aug-14 15:00N 58°12' W 136°12'5213.0 250 / 101008.6 5.4 11.5 8.5 8.0
2017-Aug-14 11:00N 58°24' W 137°48'187 9.4 270 / 41010.1 5.4 12.8 8.814.0
2017-Aug-13 15:00N 59°36' W 143°24'40 0.8 190 / 22996.8 5.4 14.511.714.0
2017-Aug-11 15:00N 59°42' W 144°42'27718.2 170 / 221006.4 5.4 15.014.115.0
2017-Aug-10 23:48N 58°20' W 136°09'517.1
2017-Aug-10 23:30N 58°22' W 136°00'510.0
2017-Aug-10 23:00N 58°27' W 136°01'713.0
2017-Aug-10 22:30N 58°33' W 136°04'917.8
2017-Aug-10 22:00N 58°41' W 136°12'1018.4
2017-Aug-10 21:29N 58°48' W 136°25'  

Dump ship's entire track history